Time;durP1;ratioP1;P1;durP2;ratioP2;P2;SDS_P1;SDS_P2;PMS_P1;PMS_P2;Temp;Humidity;BMP_temperature;BMP_pressure;BME280_temperature;BME280_humidity;BME280_pressure;Samples;Min_cycle;Max_cycle;Signal;HPM_P1;HPM_P2
2021/06/02 00:01:35;;;;;;;6.00;4.20;;;;;;;;;;5038356;28;20541;-56
2021/06/02 00:04:13;;;;;;;5.40;3.77;;;;;;;;;;5039436;28;20443;-57
2021/06/02 00:06:40;;;;;;;10.40;6.30;;;;;;;;;;5038949;28;20442;-53
2021/06/02 00:09:06;;;;;;;7.57;5.47;;;;;;;;;;5037908;28;20495;-51
2021/06/02 00:11:38;;;;;;;7.90;5.53;;;;;;;;;;5037954;28;20481;-51
2021/06/02 00:14:07;;;;;;;8.87;6.00;;;;;;;;;;5037936;28;20450;-54
2021/06/02 00:16:42;;;;;;;9.00;6.60;;;;;;;;;;5037320;28;20466;-50
2021/06/02 00:19:09;;;;;;;11.10;5.10;;;;;;;;;;5037499;28;20521;-56
2021/06/02 00:21:36;;;;;;;7.07;4.03;;;;;;;;;;5037839;28;20439;-57
2021/06/02 00:24:08;;;;;;;9.50;7.17;;;;;;;;;;5037457;28;20496;-58
2021/06/02 00:26:36;;;;;;;10.27;6.37;;;;;;;;;;5037743;28;20451;-57
2021/06/02 00:29:05;;;;;;;13.10;6.30;;;;;;;;;;5037241;28;20494;-50
2021/06/02 00:31:33;;;;;;;15.10;9.40;;;;;;;;;;5037804;28;20487;-54
2021/06/02 00:34:01;;;;;;;14.00;7.20;;;;;;;;;;5038295;28;20641;-56
2021/06/02 00:36:29;;;;;;;15.13;10.53;;;;;;;;;;5038269;28;20457;-58
2021/06/02 00:38:56;;;;;;;9.03;6.70;;;;;;;;;;5037562;28;20459;-52
2021/06/02 00:41:23;;;;;;;8.40;6.43;;;;;;;;;;5037269;28;20454;-53
2021/06/02 00:43:50;;;;;;;10.10;7.73;;;;;;;;;;5037211;28;20568;-54
2021/06/02 00:46:18;;;;;;;19.43;8.70;;;;;;;;;;5037310;28;20430;-57
2021/06/02 00:48:46;;;;;;;9.67;7.90;;;;;;;;;;5036723;28;20461;-58
2021/06/02 00:51:14;;;;;;;9.67;7.07;;;;;;;;;;5037359;28;20522;-57
2021/06/02 00:53:41;;;;;;;11.53;9.67;;;;;;;;;;5037615;28;20522;-58
2021/06/02 00:56:10;;;;;;;13.27;9.40;;;;;;;;;;5037356;28;20451;-51
2021/06/02 00:58:38;;;;;;;13.27;7.20;;;;;;;;;;5037039;28;20483;-52
2021/06/02 01:01:06;;;;;;;13.50;10.40;;;;;;;;;;5037594;28;20515;-52
2021/06/02 01:03:37;;;;;;;14.03;8.87;;;;;;;;;;5037634;28;20478;-53
2021/06/02 01:06:05;;;;;;;12.90;6.27;;;;;;;;;;5035945;28;20463;-53
2021/06/02 01:08:33;;;;;;;24.23;7.00;;;;;;;;;;5036863;28;20482;-54
2021/06/02 01:11:02;;;;;;;8.77;5.87;;;;;;;;;;5037205;28;20435;-60
2021/06/02 01:13:30;;;;;;;11.27;6.63;;;;;;;;;;5037452;28;20443;-53
2021/06/02 01:15:57;;;;;;;10.17;7.97;;;;;;;;;;5037037;28;20447;-52
2021/06/02 01:18:23;;;;;;;8.33;6.53;;;;;;;;;;5036898;28;20470;-55
2021/06/02 01:20:50;;;;;;;9.53;7.20;;;;;;;;;;5036902;28;20455;-55
2021/06/02 01:23:19;;;;;;;8.20;5.70;;;;;;;;;;5037128;28;20442;-57
2021/06/02 01:25:46;;;;;;;11.07;7.30;;;;;;;;;;5037587;28;20506;-57
2021/06/02 01:28:12;;;;;;;7.33;6.17;;;;;;;;;;5036560;28;20458;-52
2021/06/02 01:30:39;;;;;;;9.23;6.10;;;;;;;;;;5036684;28;20490;-52
2021/06/02 01:33:29;;;;;;;5.87;4.47;;;;;;;;;;5036753;28;20467;-53
2021/06/02 01:36:03;;;;;;;7.30;5.27;;;;;;;;;;5036629;28;20459;-55
2021/06/02 01:38:42;;;;;;;16.53;7.63;;;;;;;;;;5036580;28;20450;-55
2021/06/02 01:41:26;;;;;;;9.87;5.63;;;;;;;;;;5036489;28;20431;-55
2021/06/02 01:44:26;;;;;;;7.33;5.10;;;;;;;;;;5024438;28;20514;-55
2021/06/02 01:47:05;;;;;;;7.50;5.83;;;;;;;;;;5036751;28;20450;-55
2021/06/02 01:49:58;;;;;;;7.40;5.00;;;;;;;;;;5036613;28;20478;-55
2021/06/02 01:52:45;;;;;;;6.40;4.67;;;;;;;;;;5036806;28;20463;-58
2021/06/02 01:55:33;;;;;;;7.93;4.40;;;;;;;;;;5036470;28;20501;-60
2021/06/02 01:58:18;;;;;;;7.03;5.30;;;;;;;;;;5036505;28;20458;-53
2021/06/02 02:00:55;;;;;;;6.20;3.67;;;;;;;;;;5026868;28;20447;-60
2021/06/02 02:03:41;;;;;;;7.57;5.80;;;;;;;;;;5055813;28;20521;-59
2021/06/02 02:06:30;;;;;;;7.60;5.90;;;;;;;;;;5056010;28;20810;-57
2021/06/02 02:09:03;;;;;;;6.37;4.30;;;;;;;;;;5055819;28;20498;-57
2021/06/02 02:11:31;;;;;;;6.70;4.17;;;;;;;;;;5055753;28;20548;-56
2021/06/02 02:14:05;;;;;;;7.13;4.00;;;;;;;;;;5040567;28;20439;-52
2021/06/02 02:16:41;;;;;;;7.67;3.87;;;;;;;;;;5048065;28;20438;-55
2021/06/02 02:19:25;;;;;;;5.00;3.00;;;;;;;;;;5036921;28;20522;-54
2021/06/02 02:21:56;;;;;;;4.40;3.00;;;;;;;;;;5037154;28;20528;-54
2021/06/02 02:24:29;;;;;;;5.37;3.70;;;;;;;;;;5036715;28;20467;-59
2021/06/02 02:26:58;;;;;;;5.17;3.50;;;;;;;;;;5037204;28;20527;-55
2021/06/02 02:29:33;;;;;;;5.50;3.70;;;;;;;;;;5035920;28;20467;-53
2021/06/02 02:32:17;;;;;;;8.00;4.40;;;;;;;;;;5036277;28;20458;-59
2021/06/02 02:34:59;;;;;;;8.57;5.20;;;;;;;;;;5036358;28;20431;-56
2021/06/02 02:37:35;;;;;;;9.00;4.70;;;;;;;;;;5036704;28;20457;-60
2021/06/02 02:40:05;;;;;;;8.23;6.00;;;;;;;;;;5035896;28;20522;-51
2021/06/02 02:42:38;;;;;;;6.10;4.10;;;;;;;;;;5036454;28;20447;-56
2021/06/02 02:45:23;;;;;;;5.70;4.40;;;;;;;;;;5036116;28;20466;-61
2021/06/02 02:48:01;;;;;;;7.53;5.20;;;;;;;;;;5048971;28;20497;-52
2021/06/02 02:50:33;;;;;;;8.30;5.43;;;;;;;;;;5056504;28;20493;-52
2021/06/02 02:53:03;;;;;;;7.80;4.60;;;;;;;;;;5056715;28;20460;-51
2021/06/02 02:55:32;;;;;;;6.50;4.70;;;;;;;;;;5056451;28;20446;-60
2021/06/02 02:58:19;;;;;;;9.47;5.40;;;;;;;;;;5056113;28;20454;-55
2021/06/02 03:00:49;;;;;;;8.10;4.73;;;;;;;;;;5056278;28;20476;-51
2021/06/02 03:03:28;;;;;;;8.20;5.53;;;;;;;;;;5056588;28;20500;-53
2021/06/02 03:06:08;;;;;;;11.17;5.93;;;;;;;;;;5042333;28;20457;-59
2021/06/02 03:08:39;;;;;;;13.23;4.83;;;;;;;;;;5056767;28;20573;-60
2021/06/02 03:11:27;;;;;;;6.03;4.43;;;;;;;;;;5048940;28;20518;-57
2021/06/02 03:14:01;;;;;;;7.70;4.47;;;;;;;;;;5046746;28;20462;-59
2021/06/02 03:16:31;;;;;;;8.50;5.37;;;;;;;;;;5056100;28;20450;-54
2021/06/02 03:19:06;;;;;;;6.73;4.10;;;;;;;;;;5056239;28;20518;-62
2021/06/02 03:21:59;;;;;;;7.60;4.73;;;;;;;;;;5056302;28;20461;-54
2021/06/02 03:24:42;;;;;;;5.90;4.10;;;;;;;;;;5055663;28;20472;-57
2021/06/02 03:27:26;;;;;;;4.50;3.40;;;;;;;;;;5056227;28;20450;-55
2021/06/02 03:29:57;;;;;;;7.57;4.17;;;;;;;;;;5048209;28;20482;-54
2021/06/02 03:32:37;;;;;;;8.97;3.90;;;;;;;;;;5036409;28;20469;-54
2021/06/02 03:35:22;;;;;;;8.27;4.30;;;;;;;;;;5036333;28;20443;-50
2021/06/02 03:37:54;;;;;;;8.93;4.43;;;;;;;;;;5036259;28;20419;-53
2021/06/02 03:40:42;;;;;;;7.10;4.47;;;;;;;;;;5045561;28;20430;-57
2021/06/02 03:43:11;;;;;;;6.30;4.10;;;;;;;;;;5055173;28;20474;-51
2021/06/02 03:45:48;;;;;;;9.03;4.60;;;;;;;;;;5055513;28;20481;-55
2021/06/02 03:48:22;;;;;;;10.10;5.33;;;;;;;;;;5055641;28;20485;-56
2021/06/02 03:50:56;;;;;;;8.07;4.47;;;;;;;;;;5053129;28;20512;-59
2021/06/02 03:53:32;;;;;;;6.67;4.67;;;;;;;;;;5055321;28;20458;-53
2021/06/02 03:56:07;;;;;;;11.67;4.83;;;;;;;;;;5055782;28;20466;-52
2021/06/02 03:58:44;;;;;;;12.27;5.63;;;;;;;;;;5055256;28;20450;-62
2021/06/02 04:01:17;;;;;;;9.20;5.37;;;;;;;;;;5055052;28;20517;-58
2021/06/02 04:03:56;;;;;;;6.13;3.60;;;;;;;;;;5054898;28;20449;-56
2021/06/02 04:06:31;;;;;;;6.17;4.60;;;;;;;;;;5054841;28;20446;-56
2021/06/02 04:08:59;;;;;;;6.37;4.20;;;;;;;;;;5054251;28;20461;-55
2021/06/02 04:11:33;;;;;;;12.70;5.43;;;;;;;;;;5054910;28;20476;-57
2021/06/02 04:14:03;;;;;;;6.10;4.63;;;;;;;;;;5055573;28;20453;-56
2021/06/02 04:16:43;;;;;;;7.90;5.23;;;;;;;;;;5055533;28;20454;-58
2021/06/02 04:19:11;;;;;;;9.23;4.70;;;;;;;;;;5055301;28;20449;-55
2021/06/02 04:21:43;;;;;;;9.10;4.67;;;;;;;;;;5055578;28;20434;-60
2021/06/02 04:24:13;;;;;;;9.97;5.00;;;;;;;;;;5055123;28;20446;-56
2021/06/02 04:26:42;;;;;;;10.20;5.00;;;;;;;;;;5054970;28;20446;-57
2021/06/02 04:29:10;;;;;;;8.97;4.83;;;;;;;;;;5054921;28;20462;-55
2021/06/02 04:31:51;;;;;;;7.20;4.40;;;;;;;;;;5055045;28;20470;-57
2021/06/02 04:34:20;;;;;;;7.93;4.33;;;;;;;;;;5054286;28;20454;-61
2021/06/02 04:36:49;;;;;;;5.10;3.60;;;;;;;;;;5054245;28;20449;-54
2021/06/02 04:39:37;;;;;;;7.70;5.17;;;;;;;;;;5054600;28;20506;-60
2021/06/02 04:42:04;;;;;;;9.37;4.00;;;;;;;;;;5053389;28;20450;-49
2021/06/02 04:44:32;;;;;;;5.83;3.70;;;;;;;;;;5042079;28;20474;-57
2021/06/02 04:47:05;;;;;;;6.00;3.53;;;;;;;;;;5037994;28;20466;-59
2021/06/02 04:49:37;;;;;;;8.37;4.57;;;;;;;;;;5041331;28;20501;-60
2021/06/02 04:52:28;;;;;;;7.40;4.43;;;;;;;;;;5038184;28;20567;-59
2021/06/02 04:55:26;;;;;;;5.10;3.93;;;;;;;;;;5038476;28;20451;-60
2021/06/02 04:58:03;;;;;;;6.90;4.30;;;;;;;;;;5037704;28;20510;-55
2021/06/02 05:00:54;;;;;;;6.00;4.10;;;;;;;;;;5037793;28;20511;-59
2021/06/02 05:03:41;;;;;;;5.80;4.30;;;;;;;;;;5022471;28;20475;-59
2021/06/02 05:06:29;;;;;;;10.43;3.63;;;;;;;;;;5037459;28;20478;-59
2021/06/02 05:09:07;;;;;;;6.00;4.30;;;;;;;;;;5037302;28;20454;-59
2021/06/02 05:11:52;;;;;;;8.50;5.07;;;;;;;;;;5036377;28;20462;-54
2021/06/02 05:14:49;;;;;;;11.57;5.30;;;;;;;;;;5037765;28;20447;-54
2021/06/02 05:17:38;;;;;;;9.10;5.07;;;;;;;;;;5047727;28;20452;-62
2021/06/02 05:20:25;;;;;;;7.03;4.00;;;;;;;;;;5044167;28;20454;-56
2021/06/02 05:23:09;;;;;;;8.47;6.20;;;;;;;;;;5056578;28;20457;-53
2021/06/02 05:25:51;;;;;;;12.10;4.90;;;;;;;;;;5010997;28;20450;-55
2021/06/02 05:28:54;;;;;;;6.00;3.60;;;;;;;;;;5036762;28;20443;-60
2021/06/02 05:31:45;;;;;;;7.83;3.67;;;;;;;;;;5048970;28;20481;-54
2021/06/02 05:34:33;;;;;;;13.63;4.70;;;;;;;;;;5044724;28;20478;-52
2021/06/02 05:37:16;;;;;;;5.67;3.87;;;;;;;;;;5053960;28;20469;-59
2021/06/02 05:40:03;;;;;;;6.73;3.97;;;;;;;;;;5052949;28;20426;-55
2021/06/02 05:42:47;;;;;;;9.73;4.07;;;;;;;;;;5044442;28;20446;-54
2021/06/02 05:45:27;;;;;;;8.47;3.60;;;;;;;;;;5013617;28;20455;-60
2021/06/02 05:48:12;;;;;;;6.70;3.50;;;;;;;;;;5040541;28;20443;-54
2021/06/02 05:50:59;;;;;;;8.40;4.30;;;;;;;;;;5037957;28;20497;-59
2021/06/02 05:53:53;;;;;;;5.93;4.00;;;;;;;;;;5041008;28;20462;-54
2021/06/02 05:56:45;;;;;;;11.80;5.50;;;;;;;;;;4973315;29;20512;-60
2021/06/02 05:59:34;;;;;;;5.60;3.53;;;;;;;;;;4988565;28;20462;-60
2021/06/02 06:02:18;;;;;;;6.37;4.27;;;;;;;;;;5030772;28;20443;-55
2021/06/02 06:05:17;;;;;;;9.27;4.70;;;;;;;;;;5021881;28;20526;-59
2021/06/02 06:08:06;;;;;;;14.07;5.07;;;;;;;;;;5033505;28;20522;-61
2021/06/02 06:10:42;;;;;;;8.93;4.57;;;;;;;;;;5026732;28;20486;-61
2021/06/02 06:13:37;;;;;;;10.37;3.80;;;;;;;;;;5033403;28;20461;-58
2021/06/02 06:16:13;;;;;;;10.57;3.90;;;;;;;;;;5030118;28;20477;-57
2021/06/02 06:19:09;;;;;;;5.93;3.30;;;;;;;;;;5042708;28;20442;-59
2021/06/02 06:21:57;;;;;;;9.73;4.57;;;;;;;;;;5053642;28;20434;-54
2021/06/02 06:24:35;;;;;;;5.90;3.60;;;;;;;;;;5043980;28;20516;-58
2021/06/02 06:27:04;;;;;;;8.53;6.10;;;;;;;;;;5051460;28;20556;-59
2021/06/02 06:29:36;;;;;;;4.23;3.10;;;;;;;;;;5051456;28;20490;-61
2021/06/02 06:32:14;;;;;;;4.60;3.00;;;;;;;;;;5046493;28;20545;-56
2021/06/02 06:34:43;;;;;;;10.60;4.20;;;;;;;;;;5050063;28;20535;-56
2021/06/02 06:37:14;;;;;;;7.90;3.70;;;;;;;;;;5046806;28;21066;-60
2021/06/02 06:39:52;;;;;;;8.23;3.77;;;;;;;;;;5036140;28;20627;-61
2021/06/02 06:42:22;;;;;;;5.40;3.03;;;;;;;;;;5032972;28;20447;-60
2021/06/02 06:44:52;;;;;;;5.13;3.20;;;;;;;;;;5036019;28;20470;-63
2021/06/02 06:47:20;;;;;;;7.03;3.23;;;;;;;;;;5051825;28;20500;-61
2021/06/02 06:49:52;;;;;;;7.53;4.20;;;;;;;;;;5035580;28;20498;-58
2021/06/02 06:52:25;;;;;;;4.93;3.23;;;;;;;;;;5041367;28;20462;-61
2021/06/02 06:54:56;;;;;;;8.07;3.10;;;;;;;;;;5047815;28;20564;-61
2021/06/02 06:57:23;;;;;;;7.90;3.40;;;;;;;;;;5039974;28;20459;-60
2021/06/02 06:59:56;;;;;;;9.20;3.90;;;;;;;;;;5038561;28;20506;-60
2021/06/02 07:02:24;;;;;;;5.33;3.83;;;;;;;;;;5051920;28;20454;-61
2021/06/02 07:04:51;;;;;;;10.80;3.77;;;;;;;;;;5048894;28;20453;-59
2021/06/02 07:07:36;;;;;;;10.60;4.23;;;;;;;;;;5036395;28;20489;-57
2021/06/02 07:10:06;;;;;;;6.83;3.60;;;;;;;;;;5032073;28;20494;-54
2021/06/02 07:12:32;;;;;;;5.60;3.80;;;;;;;;;;5032708;28;20458;-57
2021/06/02 07:15:03;;;;;;;5.30;3.13;;;;;;;;;;5032430;28;20483;-58
2021/06/02 07:17:30;;;;;;;7.73;3.27;;;;;;;;;;5042909;28;20487;-56
2021/06/02 07:20:12;;;;;;;7.10;3.10;;;;;;;;;;5044825;28;20455;-58
2021/06/02 07:22:43;;;;;;;13.07;4.07;;;;;;;;;;5032185;28;20533;-56
2021/06/02 07:25:14;;;;;;;5.10;2.90;;;;;;;;;;5042523;28;20560;-60
2021/06/02 07:27:45;;;;;;;10.30;4.00;;;;;;;;;;5049050;28;20450;-57
2021/06/02 07:30:13;;;;;;;5.73;3.20;;;;;;;;;;5034183;28;20573;-59
2021/06/02 07:32:42;;;;;;;7.37;3.20;;;;;;;;;;5038669;28;20454;-59
2021/06/02 07:35:27;;;;;;;8.73;3.50;;;;;;;;;;5041918;28;20450;-58
2021/06/02 07:37:56;;;;;;;5.63;3.20;;;;;;;;;;5048824;28;20501;-58
2021/06/02 07:40:27;;;;;;;5.60;3.30;;;;;;;;;;5041845;28;20458;-57
2021/06/02 07:42:57;;;;;;;4.37;2.80;;;;;;;;;;5040099;28;20450;-58
2021/06/02 07:45:37;;;;;;;4.73;2.90;;;;;;;;;;5050875;28;20453;-57
2021/06/02 07:48:09;;;;;;;6.20;3.40;;;;;;;;;;5037026;28;20434;-51
2021/06/02 07:50:36;;;;;;;6.80;3.27;;;;;;;;;;5037612;28;20490;-58
2021/06/02 07:53:05;;;;;;;7.30;3.00;;;;;;;;;;5032806;28;20443;-53
2021/06/02 07:55:33;;;;;;;5.60;3.63;;;;;;;;;;5038601;28;20493;-58
2021/06/02 07:58:04;;;;;;;5.27;2.93;;;;;;;;;;5031923;28;21060;-61
2021/06/02 08:00:31;;;;;;;4.00;2.90;;;;;;;;;;5036099;28;20458;-50
2021/06/02 08:03:13;;;;;;;7.70;3.13;;;;;;;;;;5031421;28;20447;-55
2021/06/02 08:05:48;;;;;;;5.40;2.87;;;;;;;;;;5033702;28;20447;-61
2021/06/02 08:08:23;;;;;;;7.73;2.60;;;;;;;;;;5032479;28;20435;-59
2021/06/02 08:10:51;;;;;;;5.20;3.23;;;;;;;;;;5032771;28;20529;-58
2021/06/02 08:13:18;;;;;;;6.40;3.47;;;;;;;;;;5036580;28;20566;-55
2021/06/02 08:15:45;;;;;;;4.70;2.60;;;;;;;;;;5033761;28;20463;-55
2021/06/02 08:18:14;;;;;;;8.87;3.00;;;;;;;;;;5036061;28;20439;-60
2021/06/02 08:20:46;;;;;;;7.67;5.27;;;;;;;;;;5039975;28;20564;-58
2021/06/02 08:23:14;;;;;;;3.73;2.80;;;;;;;;;;5052343;28;20476;-58
2021/06/02 08:25:46;;;;;;;5.50;2.97;;;;;;;;;;5049503;28;20469;-54
2021/06/02 08:28:15;;;;;;;4.47;2.10;;;;;;;;;;5040599;28;20454;-59
2021/06/02 08:30:48;;;;;;;9.03;3.80;;;;;;;;;;5043561;28;20493;-57
2021/06/02 08:33:15;;;;;;;6.67;2.83;;;;;;;;;;5034753;28;20489;-58
2021/06/02 08:35:58;;;;;;;5.30;3.50;;;;;;;;;;5034746;28;20609;-59
2021/06/02 08:38:30;;;;;;;4.17;3.03;;;;;;;;;;5033137;28;20473;-56
2021/06/02 08:40:59;;;;;;;3.57;2.63;;;;;;;;;;5040539;28;20448;-59
2021/06/02 08:43:36;;;;;;;5.07;2.50;;;;;;;;;;5034709;28;20478;-57
2021/06/02 08:46:03;;;;;;;7.53;2.67;;;;;;;;;;5037263;28;20572;-57
2021/06/02 08:48:37;;;;;;;4.27;2.90;;;;;;;;;;5053466;28;20466;-59
2021/06/02 08:51:04;;;;;;;7.57;3.30;;;;;;;;;;5054019;28;20774;-56
2021/06/02 08:53:31;;;;;;;5.10;3.40;;;;;;;;;;5052555;28;20468;-61
2021/06/02 08:56:29;;;;;;;4.77;3.07;;;;;;;;;;5034661;28;20450;-59
2021/06/02 08:58:57;;;;;;;6.40;3.03;;;;;;;;;;5036711;28;20462;-57
2021/06/02 09:01:25;;;;;;;4.67;3.17;;;;;;;;;;5034093;28;20450;-56
2021/06/02 09:03:53;;;;;;;4.87;3.00;;;;;;;;;;5033759;28;20518;-56
2021/06/02 09:06:20;;;;;;;8.57;2.50;;;;;;;;;;5034286;28;20484;-57
2021/06/02 09:08:47;;;;;;;3.80;2.50;;;;;;;;;;5034046;28;20455;-60
2021/06/02 09:11:17;;;;;;;4.27;3.17;;;;;;;;;;5053403;28;20546;-58
2021/06/02 09:13:45;;;;;;;9.00;2.70;;;;;;;;;;5052935;28;20493;-58
2021/06/02 09:16:28;;;;;;;6.00;3.00;;;;;;;;;;5053218;28;20520;-59
2021/06/02 09:19:02;;;;;;;5.63;3.23;;;;;;;;;;5054222;28;20449;-59
2021/06/02 09:21:33;;;;;;;4.10;2.60;;;;;;;;;;5053987;28;20555;-61
2021/06/02 09:24:03;;;;;;;4.57;2.67;;;;;;;;;;5037887;28;20458;-60
2021/06/02 09:26:32;;;;;;;7.43;3.40;;;;;;;;;;5038257;28;20473;-60
2021/06/02 09:29:19;;;;;;;4.90;2.80;;;;;;;;;;5042149;28;20450;-57
2021/06/02 09:32:03;;;;;;;5.30;3.03;;;;;;;;;;5032953;28;20858;-57
2021/06/02 09:34:30;;;;;;;5.10;3.27;;;;;;;;;;5046745;28;20426;-60
2021/06/02 09:37:02;;;;;;;4.50;2.87;;;;;;;;;;5051866;28;20478;-60
2021/06/02 09:39:29;;;;;;;6.50;2.30;;;;;;;;;;5051062;28;20461;-60
2021/06/02 09:42:00;;;;;;;5.67;3.40;;;;;;;;;;5050708;28;20469;-59
2021/06/02 09:44:34;;;;;;;4.50;3.13;;;;;;;;;;5051862;28;20446;-61
2021/06/02 09:47:04;;;;;;;4.40;3.00;;;;;;;;;;5052590;28;20447;-60
2021/06/02 09:49:45;;;;;;;6.50;3.77;;;;;;;;;;5051967;28;20458;-60
2021/06/02 09:52:14;;;;;;;4.80;2.70;;;;;;;;;;5052597;28;20468;-60
2021/06/02 09:54:41;;;;;;;5.03;2.00;;;;;;;;;;5037436;28;20470;-57
2021/06/02 09:57:25;;;;;;;6.17;3.50;;;;;;;;;;5031763;28;20687;-56
2021/06/02 09:59:55;;;;;;;4.37;2.70;;;;;;;;;;5031866;28;20518;-58
2021/06/02 10:02:35;;;;;;;5.60;2.93;;;;;;;;;;5039839;28;20457;-57
2021/06/02 10:05:10;;;;;;;6.80;3.77;;;;;;;;;;5034103;28;20485;-60
2021/06/02 10:07:44;;;;;;;5.60;3.33;;;;;;;;;;5030575;28;20462;-57
2021/06/02 10:10:17;;;;;;;8.50;3.10;;;;;;;;;;5039921;28;20496;-59
2021/06/02 10:13:03;;;;;;;4.83;2.60;;;;;;;;;;5051608;28;20495;-58
2021/06/02 10:15:33;;;;;;;4.40;3.20;;;;;;;;;;5030738;28;20518;-59
2021/06/02 10:18:02;;;;;;;7.80;3.07;;;;;;;;;;5031879;28;20534;-60
2021/06/02 10:20:31;;;;;;;7.33;2.93;;;;;;;;;;5039865;28;20485;-57
2021/06/02 10:22:59;;;;;;;13.83;3.70;;;;;;;;;;5043859;28;20456;-59
2021/06/02 10:25:27;;;;;;;7.37;3.37;;;;;;;;;;5041106;28;20490;-54
2021/06/02 10:28:05;;;;;;;3.63;2.67;;;;;;;;;;5036961;28;20894;-57
2021/06/02 10:30:41;;;;;;;4.97;2.77;;;;;;;;;;5031065;28;20478;-58
2021/06/02 10:33:10;;;;;;;4.60;2.60;;;;;;;;;;5042426;28;20564;-62
2021/06/02 10:35:54;;;;;;;5.30;2.70;;;;;;;;;;5043096;28;20513;-60
2021/06/02 10:38:26;;;;;;;8.90;2.40;;;;;;;;;;5033812;28;20892;-57
2021/06/02 10:40:53;;;;;;;7.87;3.27;;;;;;;;;;5032843;28;20458;-60
2021/06/02 10:43:21;;;;;;;7.20;2.77;;;;;;;;;;5045925;28;20554;-59
2021/06/02 10:45:49;;;;;;;5.10;2.03;;;;;;;;;;5048930;28;20462;-58
2021/06/02 10:48:37;;;;;;;8.77;2.93;;;;;;;;;;5048233;28;20534;-60
2021/06/02 10:51:04;;;;;;;4.70;2.80;;;;;;;;;;5050258;28;20513;-60
2021/06/02 10:53:32;;;;;;;5.23;2.00;;;;;;;;;;5039355;28;20470;-58
2021/06/02 10:56:20;;;;;;;7.83;2.50;;;;;;;;;;5045513;28;20504;-57
2021/06/02 10:58:47;;;;;;;3.70;2.30;;;;;;;;;;5053370;28;20481;-59
2021/06/02 11:01:17;;;;;;;3.50;1.93;;;;;;;;;;5037870;28;20439;-59
2021/06/02 11:03:46;;;;;;;3.80;2.70;;;;;;;;;;5033081;28;20431;-62
2021/06/02 11:06:37;;;;;;;3.10;2.20;;;;;;;;;;5052402;28;20469;-59
2021/06/02 11:09:21;;;;;;;5.43;1.93;;;;;;;;;;5048230;28;20466;-60
2021/06/02 11:12:04;;;;;;;6.93;2.63;;;;;;;;;;5037035;28;20533;-51
2021/06/02 11:14:31;;;;;;;6.20;3.03;;;;;;;;;;5033022;28;20461;-58
2021/06/02 11:17:03;;;;;;;5.93;3.27;;;;;;;;;;5043718;28;20458;-58
2021/06/02 11:19:38;;;;;;;3.17;2.03;;;;;;;;;;5050800;28;20446;-61
2021/06/02 11:22:07;;;;;;;4.17;2.20;;;;;;;;;;5048302;28;20446;-54
2021/06/02 11:24:46;;;;;;;5.00;2.50;;;;;;;;;;5053891;28;20430;-60
2021/06/02 11:27:31;;;;;;;4.87;2.03;;;;;;;;;;5050513;28;20453;-55
2021/06/02 11:30:19;;;;;;;4.70;2.20;;;;;;;;;;5052232;28;20454;-56
2021/06/02 11:33:04;;;;;;;4.47;2.60;;;;;;;;;;5039747;28;20486;-59
2021/06/02 11:35:52;;;;;;;3.57;2.50;;;;;;;;;;5028296;28;20457;-61
2021/06/02 11:38:50;;;;;;;4.60;2.20;;;;;;;;;;5044362;28;20455;-57
2021/06/02 11:41:43;;;;;;;4.90;2.67;;;;;;;;;;5033445;28;20455;-57
2021/06/02 11:44:12;;;;;;;6.30;3.30;;;;;;;;;;5033041;28;20462;-53
2021/06/02 11:46:47;;;;;;;8.80;3.10;;;;;;;;;;5032608;28;20534;-59
2021/06/02 11:49:29;;;;;;;5.43;2.60;;;;;;;;;;5033056;28;20431;-60
2021/06/02 11:51:57;;;;;;;5.33;2.37;;;;;;;;;;5035067;28;20614;-52
2021/06/02 11:54:25;;;;;;;5.13;2.80;;;;;;;;;;5037277;28;20492;-57
2021/06/02 11:56:55;;;;;;;4.60;2.77;;;;;;;;;;5036695;28;20469;-55
2021/06/02 11:59:22;;;;;;;3.43;2.20;;;;;;;;;;5038363;28;20490;-60
2021/06/02 12:01:49;;;;;;;7.40;2.57;;;;;;;;;;5036454;28;20527;-58
2021/06/02 12:04:40;;;;;;;5.97;2.40;;;;;;;;;;5036506;28;20469;-58
2021/06/02 12:07:31;;;;;;;6.30;2.57;;;;;;;;;;5043586;28;20516;-59
2021/06/02 12:10:08;;;;;;;4.30;2.57;;;;;;;;;;5055628;28;20460;-53
2021/06/02 12:12:41;;;;;;;4.87;2.80;;;;;;;;;;5036955;28;20473;-59
2021/06/02 12:15:14;;;;;;;4.80;2.00;;;;;;;;;;5041690;28;20458;-59
2021/06/02 12:17:42;;;;;;;8.10;3.20;;;;;;;;;;5041546;28;21095;-58
2021/06/02 12:20:13;;;;;;;5.57;2.87;;;;;;;;;;5036913;28;20546;-61
2021/06/02 12:22:40;;;;;;;9.33;2.63;;;;;;;;;;5036444;28;20491;-52
2021/06/02 12:25:13;;;;;;;5.87;2.40;;;;;;;;;;5048025;28;20458;-60
2021/06/02 12:27:55;;;;;;;5.03;2.37;;;;;;;;;;5056182;28;20449;-58
2021/06/02 12:30:34;;;;;;;5.00;2.27;;;;;;;;;;5052850;28;20469;-57
2021/06/02 12:33:28;;;;;;;3.80;2.20;;;;;;;;;;5039731;28;20454;-50
2021/06/02 12:36:06;;;;;;;6.07;2.27;;;;;;;;;;5044463;28;20449;-60
2021/06/02 12:38:34;;;;;;;6.57;2.13;;;;;;;;;;5040894;28;20422;-56
2021/06/02 12:41:01;;;;;;;4.80;2.33;;;;;;;;;;5055737;28;20472;-57
2021/06/02 12:43:33;;;;;;;4.30;2.47;;;;;;;;;;5035971;28;20442;-61
2021/06/02 12:46:08;;;;;;;6.63;3.60;;;;;;;;;;5034560;28;20573;-61
2021/06/02 12:48:36;;;;;;;7.17;2.60;;;;;;;;;;5042459;28;20460;-60
2021/06/02 12:51:08;;;;;;;7.20;2.37;;;;;;;;;;5035286;28;20497;-55
2021/06/02 12:53:39;;;;;;;8.10;3.30;;;;;;;;;;5046322;28;20442;-60
2021/06/02 12:56:08;;;;;;;8.30;2.30;;;;;;;;;;5035134;28;20715;-58
2021/06/02 12:58:36;;;;;;;6.73;2.27;;;;;;;;;;5035818;28;20478;-60
2021/06/02 13:01:33;;;;;;;6.80;2.13;;;;;;;;;;5036019;28;20463;-59
2021/06/02 13:04:03;;;;;;;6.27;3.03;;;;;;;;;;5052352;28;20524;-60
2021/06/02 13:06:51;;;;;;;3.83;2.50;;;;;;;;;;5051540;28;20462;-58
2021/06/02 13:09:21;;;;;;;5.30;3.30;;;;;;;;;;5038422;28;20438;-58
2021/06/02 13:11:49;;;;;;;5.00;2.73;;;;;;;;;;5035281;28;20530;-60
2021/06/02 13:14:23;;;;;;;8.83;2.47;;;;;;;;;;5035449;28;20451;-55
2021/06/02 13:16:51;;;;;;;5.33;3.30;;;;;;;;;;5035221;28;20443;-59
2021/06/02 13:19:35;;;;;;;5.40;2.50;;;;;;;;;;5045829;28;20442;-58
2021/06/02 13:22:02;;;;;;;5.00;2.30;;;;;;;;;;5040857;28;20453;-58
2021/06/02 13:24:40;;;;;;;3.90;2.60;;;;;;;;;;5046492;28;20495;-54
2021/06/02 13:27:25;;;;;;;4.03;1.87;;;;;;;;;;5046384;28;20477;-56
2021/06/02 13:30:22;;;;;;;3.80;2.17;;;;;;;;;;5040095;28;20968;-60
2021/06/02 13:33:08;;;;;;;6.13;1.97;;;;;;;;;;5041963;28;20500;-60
2021/06/02 13:35:35;;;;;;;15.17;4.13;;;;;;;;;;5055471;28;20461;-56
2021/06/02 13:38:05;;;;;;;5.97;2.40;;;;;;;;;;5055149;28;20489;-60
2021/06/02 13:40:33;;;;;;;3.77;2.10;;;;;;;;;;5055315;28;20450;-55
2021/06/02 13:43:03;;;;;;;5.13;2.37;;;;;;;;;;5038741;28;20782;-56
2021/06/02 13:45:45;;;;;;;7.23;2.80;;;;;;;;;;5035100;28;20444;-55
2021/06/02 13:48:27;;;;;;;5.53;2.77;;;;;;;;;;5034546;28;20577;-61
2021/06/02 13:51:10;;;;;;;3.80;1.93;;;;;;;;;;5034568;28;20545;-60
2021/06/02 13:53:37;;;;;;;14.23;2.43;;;;;;;;;;5034012;28;20467;-54
2021/06/02 13:56:04;;;;;;;4.70;2.40;;;;;;;;;;5035616;28;20454;-56
2021/06/02 13:58:31;;;;;;;6.10;2.60;;;;;;;;;;5033983;28;20893;-57
2021/06/02 14:01:11;;;;;;;7.73;2.87;;;;;;;;;;5039730;28;20486;-58
2021/06/02 14:03:45;;;;;;;6.67;3.13;;;;;;;;;;5052501;28;20532;-59
2021/06/02 14:06:11;;;;;;;9.00;2.93;;;;;;;;;;5033901;28;20459;-55
2021/06/02 14:08:43;;;;;;;5.20;2.50;;;;;;;;;;5033375;28;20450;-59
2021/06/02 14:11:23;;;;;;;5.40;2.77;;;;;;;;;;5041929;28;20501;-63
2021/06/02 14:13:56;;;;;;;6.50;2.10;;;;;;;;;;5049151;28;20472;-62
2021/06/02 14:16:24;;;;;;;4.40;1.57;;;;;;;;;;5054110;28;20446;-58
2021/06/02 14:18:54;;;;;;;4.93;2.10;;;;;;;;;;5050765;28;20450;-60
2021/06/02 14:21:29;;;;;;;4.40;1.60;;;;;;;;;;5033311;28;20510;-58
2021/06/02 14:23:57;;;;;;;4.17;2.17;;;;;;;;;;5033375;28;20671;-51
2021/06/02 14:26:25;;;;;;;7.77;2.60;;;;;;;;;;5046380;28;20481;-55
2021/06/02 14:28:53;;;;;;;4.60;2.07;;;;;;;;;;5037865;28;20449;-61
2021/06/02 14:31:23;;;;;;;4.47;2.40;;;;;;;;;;5033074;28;20510;-54
2021/06/02 14:33:56;;;;;;;4.03;2.37;;;;;;;;;;5035819;28;20465;-61
2021/06/02 14:36:23;;;;;;;2.93;1.40;;;;;;;;;;5038960;28;20438;-60
2021/06/02 14:38:59;;;;;;;4.47;2.43;;;;;;;;;;5042778;28;20525;-55
2021/06/02 14:41:27;;;;;;;4.60;2.47;;;;;;;;;;5034111;28;20455;-61
2021/06/02 14:44:00;;;;;;;4.90;3.43;;;;;;;;;;5053563;28;20445;-60
2021/06/02 14:46:30;;;;;;;8.00;2.50;;;;;;;;;;5054053;28;20530;-61
2021/06/02 14:49:00;;;;;;;9.93;2.60;;;;;;;;;;5052567;28;20454;-59
2021/06/02 14:51:27;;;;;;;3.97;1.80;;;;;;;;;;5034395;28;20495;-59
2021/06/02 14:53:56;;;;;;;5.17;2.23;;;;;;;;;;5034429;28;20472;-58
2021/06/02 14:56:23;;;;;;;7.00;3.90;;;;;;;;;;5036942;28;20462;-59
2021/06/02 14:58:53;;;;;;;4.93;2.33;;;;;;;;;;5047153;28;20454;-60
2021/06/02 15:01:22;;;;;;;5.27;2.73;;;;;;;;;;5054326;28;20485;-57
2021/06/02 15:04:03;;;;;;;3.73;2.07;;;;;;;;;;5047524;28;20475;-51
2021/06/02 15:06:34;;;;;;;4.53;1.80;;;;;;;;;;5034113;28;20455;-59
2021/06/02 15:09:02;;;;;;;3.93;2.17;;;;;;;;;;5033077;28;20458;-56
2021/06/02 15:11:29;;;;;;;6.17;2.20;;;;;;;;;;5033418;28;20569;-56
2021/06/02 15:13:56;;;;;;;4.37;1.80;;;;;;;;;;5032695;28;20463;-61
2021/06/02 15:16:23;;;;;;;16.20;2.37;;;;;;;;;;5032915;28;20473;-57
2021/06/02 15:18:53;;;;;;;5.80;2.53;;;;;;;;;;5041215;28;20490;-58
2021/06/02 15:21:20;;;;;;;6.00;2.63;;;;;;;;;;5053710;28;20492;-55
2021/06/02 15:23:48;;;;;;;5.10;2.10;;;;;;;;;;5041706;28;20630;-57
2021/06/02 15:26:18;;;;;;;4.57;2.67;;;;;;;;;;5036317;28;20458;-58